createdAt,value
2023-05-06T00:01:17.218Z,100154.94
2023-05-06T00:03:46.293Z,100154.38
2023-05-06T00:06:14.212Z,100151.03
2023-05-06T00:08:41.703Z,100147.50
2023-05-06T00:11:09.222Z,100142.19
2023-05-06T00:13:37.563Z,100142.63
2023-05-06T00:16:05.465Z,100138.66
2023-05-06T00:18:33.137Z,100138.78
2023-05-06T00:21:02.069Z,100132.53
2023-05-06T00:23:29.576Z,100121.72
2023-05-06T00:25:57.200Z,100113.66
2023-05-06T00:28:24.712Z,100100.16
2023-05-06T00:30:52.230Z,100111.56
2023-05-06T00:33:19.712Z,100113.00
2023-05-06T00:35:47.256Z,100119.44
2023-05-06T00:38:16.920Z,100126.66
2023-05-06T00:40:44.400Z,100138.75
2023-05-06T00:43:12.006Z,100130.78
2023-05-06T00:45:39.819Z,100123.75
2023-05-06T00:48:07.779Z,100124.19
2023-05-06T00:50:36.125Z,100105.75
2023-05-06T00:53:04.995Z,100095.78
2023-05-06T00:55:33.870Z,100101.53
2023-05-06T00:58:01.907Z,100098.53
2023-05-06T01:00:29.507Z,100097.66
2023-05-06T01:02:57.066Z,100098.19
2023-05-06T01:05:27.186Z,100088.09
2023-05-06T01:07:58.627Z,100089.78
2023-05-06T01:10:34.910Z,100104.78
2023-05-06T01:13:07.012Z,100108.50
2023-05-06T01:15:36.274Z,100115.59
2023-05-06T01:18:09.476Z,100117.16
2023-05-06T01:20:38.261Z,100116.81
2023-05-06T01:23:12.206Z,100113.22
2023-05-06T01:25:40.096Z,100119.84
2023-05-06T01:28:10.319Z,100111.56
2023-05-06T01:30:44.471Z,100128.06
2023-05-06T01:33:17.441Z,100134.97
2023-05-06T01:35:52.619Z,100147.31
2023-05-06T01:38:28.928Z,100164.13
2023-05-06T01:40:56.877Z,100155.16
2023-05-06T01:43:26.053Z,100158.94
2023-05-06T01:45:55.413Z,100155.44
2023-05-06T01:48:23.413Z,100156.81
2023-05-06T01:50:50.962Z,100156.16
2023-05-06T01:53:18.444Z,100157.47
2023-05-06T01:55:48.150Z,100158.47
2023-05-06T01:58:15.788Z,100162.88
2023-05-06T02:00:43.332Z,100159.47
2023-05-06T02:03:10.984Z,100163.00
2023-05-06T02:05:38.704Z,100168.91
2023-05-06T02:08:06.272Z,100159.16
2023-05-06T02:10:33.797Z,100162.75
2023-05-06T02:13:02.616Z,100164.63
2023-05-06T02:15:30.170Z,100165.88
2023-05-06T02:17:59.831Z,100167.66
2023-05-06T02:20:27.542Z,100159.56
2023-05-06T02:22:55.021Z,100156.38
2023-05-06T02:25:23.395Z,100166.09
2023-05-06T02:27:50.896Z,100163.75
2023-05-06T02:30:19.877Z,100173.03
2023-05-06T02:32:47.426Z,100173.75
2023-05-06T02:35:14.957Z,100170.56
2023-05-06T02:37:42.418Z,100168.56
2023-05-06T02:40:10.508Z,100165.16
2023-05-06T02:42:38.035Z,100165.22
2023-05-06T02:45:06.302Z,100159.28
2023-05-06T02:47:35.186Z,100162.78
2023-05-06T02:50:02.820Z,100164.16
2023-05-06T02:52:30.323Z,100165.19
2023-05-06T02:54:57.799Z,100165.94
2023-05-06T02:57:25.309Z,100164.81
2023-05-06T02:59:52.823Z,100162.84
2023-05-06T03:02:20.347Z,100155.88
2023-05-06T03:04:49.152Z,100157.06
2023-05-06T03:07:16.698Z,100158.41
2023-05-06T03:09:44.202Z,100161.44
2023-05-06T03:12:11.891Z,100160.91
2023-05-06T03:14:39.412Z,100158.66
2023-05-06T03:17:06.886Z,100158.13
2023-05-06T03:19:34.493Z,100152.03
2023-05-06T03:22:03.350Z,100162.84
2023-05-06T03:24:30.838Z,100149.59
2023-05-06T03:26:58.507Z,100151.13
2023-05-06T03:29:28.303Z,100151.34
2023-05-06T03:31:57.086Z,100149.88
2023-05-06T03:34:24.689Z,100155.16
2023-05-06T03:36:52.163Z,100149.69
2023-05-06T03:39:21.379Z,100149.28
2023-05-06T03:41:48.865Z,100148.06
2023-05-06T03:44:16.347Z,100151.78
2023-05-06T03:46:43.954Z,100160.63
2023-05-06T03:49:11.515Z,100152.53
2023-05-06T03:51:39.117Z,100153.72
2023-05-06T03:54:06.655Z,100162.44
2023-05-06T03:56:36.114Z,100152.56
2023-05-06T03:59:03.701Z,100157.19
2023-05-06T04:01:31.209Z,100159.53
2023-05-06T04:03:58.801Z,100156.81
2023-05-06T04:06:26.848Z,100145.50
2023-05-06T04:08:54.338Z,100158.03
2023-05-06T04:11:21.826Z,100158.19
2023-05-06T04:13:50.693Z,100166.41
2023-05-06T04:16:18.224Z,100154.81
2023-05-06T04:18:46.176Z,100165.81
2023-05-06T04:21:13.690Z,100160.59
2023-05-06T04:23:41.512Z,100163.22
2023-05-06T04:26:09.072Z,100163.84
2023-05-06T04:28:36.584Z,100167.03
2023-05-06T04:31:08.428Z,100166.09
2023-05-06T04:33:35.964Z,100170.09
2023-05-06T04:36:03.555Z,100170.38
2023-05-06T04:38:32.164Z,100163.91
2023-05-06T04:40:59.917Z,100166.47
2023-05-06T04:43:27.639Z,100179.66
2023-05-06T04:45:55.276Z,100169.22
2023-05-06T04:48:24.365Z,100172.84
2023-05-06T04:50:52.089Z,100172.56
2023-05-06T04:53:19.569Z,100177.31
2023-05-06T04:55:47.099Z,100175.94
2023-05-06T04:58:14.600Z,100182.16
2023-05-06T05:00:42.131Z,100175.53
2023-05-06T05:03:09.728Z,100186.19
2023-05-06T05:05:38.579Z,100182.63
2023-05-06T05:08:06.612Z,100192.97
2023-05-06T05:10:34.094Z,100191.78
2023-05-06T05:13:01.584Z,100187.63
2023-05-06T05:15:29.124Z,100191.56
2023-05-06T05:17:56.642Z,100191.78
2023-05-06T05:20:24.282Z,100197.97
2023-05-06T05:22:53.074Z,100197.06
2023-05-06T05:25:21.197Z,100196.81
2023-05-06T05:27:48.660Z,100200.97
2023-05-06T05:30:16.317Z,100193.06
2023-05-06T05:32:43.872Z,100203.84
2023-05-06T05:35:11.829Z,100203.44
2023-05-06T05:37:39.575Z,100199.09
2023-05-06T05:40:10.324Z,100205.38
2023-05-06T05:42:37.838Z,100197.16
2023-05-06T05:45:06.372Z,100209.56
2023-05-06T05:47:34.158Z,100206.66
2023-05-06T05:50:01.723Z,100218.03
2023-05-06T05:52:29.226Z,100205.03
2023-05-06T05:54:56.840Z,100212.38
2023-05-06T05:57:25.842Z,100216.41
2023-05-06T05:59:53.330Z,100218.97
2023-05-06T06:02:20.983Z,100226.53
2023-05-06T06:04:48.775Z,100214.91
2023-05-06T06:07:16.323Z,100213.41
2023-05-06T06:09:46.685Z,100218.09
2023-05-06T06:12:14.220Z,100224.78
2023-05-06T06:14:47.848Z,100228.47
2023-05-06T06:17:15.819Z,100234.09
2023-05-06T06:19:43.506Z,100236.91
2023-05-06T06:22:10.994Z,100235.66
2023-05-06T06:24:39.214Z,100236.88
2023-05-06T06:27:06.702Z,100231.97
2023-05-06T06:29:34.205Z,100240.88
2023-05-06T06:32:04.184Z,100236.56
2023-05-06T06:34:31.794Z,100244.03
2023-05-06T06:37:00.337Z,100241.66
2023-05-06T06:39:27.856Z,100250.63
2023-05-06T06:41:57.450Z,100248.34
2023-05-06T06:44:25.021Z,100250.25
2023-05-06T06:46:52.505Z,100255.84
2023-05-06T06:49:21.310Z,100260.91
2023-05-06T06:51:48.787Z,100256.50
2023-05-06T06:54:16.280Z,100267.13
2023-05-06T06:56:43.756Z,100262.69
2023-05-06T06:59:11.281Z,100262.59
2023-05-06T07:01:38.886Z,100268.44
2023-05-06T07:04:07.378Z,100259.47
2023-05-06T07:06:36.351Z,100264.28
2023-05-06T07:09:03.861Z,100260.91
2023-05-06T07:11:31.462Z,100262.03
2023-05-06T07:13:58.979Z,100265.94
2023-05-06T07:16:26.693Z,100267.50
2023-05-06T07:18:54.208Z,100264.84
2023-05-06T07:21:21.681Z,100272.91
2023-05-06T07:23:50.560Z,100273.75
2023-05-06T07:26:18.032Z,100273.09
2023-05-06T07:28:45.587Z,100282.84
2023-05-06T07:31:13.567Z,100286.47
2023-05-06T07:33:41.138Z,100285.06
2023-05-06T07:36:09.136Z,100297.84
2023-05-06T07:38:36.683Z,100300.38
2023-05-06T07:41:05.709Z,100295.91
2023-05-06T07:43:33.329Z,100314.25
2023-05-06T07:46:03.213Z,100303.84
2023-05-06T07:48:31.058Z,100312.41
2023-05-06T07:50:58.589Z,100303.31
2023-05-06T07:53:26.375Z,100308.69
2023-05-06T07:55:55.499Z,100306.66
2023-05-06T07:58:24.395Z,100311.28
2023-05-06T08:00:51.859Z,100310.94
2023-05-06T08:03:19.700Z,100320.47
2023-05-06T08:05:47.388Z,100309.06
2023-05-06T08:08:14.923Z,100317.19
2023-05-06T08:10:44.192Z,100312.22
2023-05-06T08:13:11.949Z,100310.63
2023-05-06T08:15:41.066Z,100306.31
2023-05-06T08:18:20.698Z,100318.63
2023-05-06T08:20:49.689Z,100315.06
2023-05-06T08:23:17.483Z,100317.06
2023-05-06T08:25:44.997Z,100318.25
2023-05-06T08:28:12.491Z,100308.94
2023-05-06T08:30:41.274Z,100314.50
2023-05-06T08:33:08.997Z,100318.34
2023-05-06T08:35:36.538Z,100313.16
2023-05-06T08:38:04.152Z,100315.72
2023-05-06T08:40:33.785Z,100320.78
2023-05-06T08:43:03.807Z,100324.34
2023-05-06T08:45:31.720Z,100329.66
2023-05-06T08:48:00.954Z,100325.81
2023-05-06T08:50:28.689Z,100322.28
2023-05-06T08:52:56.192Z,100325.75
2023-05-06T08:55:25.426Z,100328.66
2023-05-06T08:57:53.838Z,100333.13
2023-05-06T09:00:21.658Z,100338.94
2023-05-06T09:02:49.225Z,100330.97
2023-05-06T09:05:18.296Z,100338.28
2023-05-06T09:07:45.780Z,100335.22
2023-05-06T09:10:14.338Z,100338.97
2023-05-06T09:12:42.012Z,100338.91
2023-05-06T09:15:11.510Z,100341.06
2023-05-06T09:17:39.367Z,100345.41
2023-05-06T09:20:09.567Z,100337.50
2023-05-06T09:22:39.140Z,100337.09
2023-05-06T09:25:07.761Z,100348.16
2023-05-06T09:27:36.675Z,100345.09
2023-05-06T09:30:06.000Z,100340.66
2023-05-06T09:32:35.241Z,100339.31
2023-05-06T09:35:05.218Z,100342.00
2023-05-06T09:37:32.888Z,100331.28
2023-05-06T09:40:01.961Z,100334.84
2023-05-06T09:42:30.602Z,100338.00
2023-05-06T09:45:01.593Z,100339.81
2023-05-06T09:47:34.625Z,100344.22
2023-05-06T09:50:02.823Z,100356.19
2023-05-06T09:52:31.126Z,100349.41
2023-05-06T09:54:59.218Z,100359.72
2023-05-06T09:57:30.844Z,100351.78
2023-05-06T09:59:58.881Z,100360.47
2023-05-06T10:02:27.734Z,100356.84
2023-05-06T10:04:57.515Z,100358.38
2023-05-06T10:07:28.674Z,100368.50
2023-05-06T10:09:57.937Z,100367.84
2023-05-06T10:12:27.873Z,100368.97
2023-05-06T10:14:55.456Z,100355.38
2023-05-06T10:17:26.226Z,100366.81
2023-05-06T10:19:56.958Z,100349.34
2023-05-06T10:22:32.118Z,100351.91
2023-05-06T10:25:01.303Z,100359.31
2023-05-06T10:27:31.935Z,100349.75
2023-05-06T10:30:01.062Z,100356.84
2023-05-06T10:32:32.952Z,100356.09
2023-05-06T10:35:06.737Z,100355.06
2023-05-06T10:37:35.319Z,100357.22
2023-05-06T10:40:04.763Z,100359.25
2023-05-06T10:42:35.947Z,100348.81
2023-05-06T10:45:04.724Z,100354.63
2023-05-06T10:48:08.660Z,100351.03
2023-05-06T10:50:36.217Z,100358.47
2023-05-06T10:53:03.775Z,100354.50
2023-05-06T10:55:32.493Z,100356.97
2023-05-06T10:58:03.979Z,100355.25
2023-05-06T11:00:32.319Z,100354.84
2023-05-06T11:03:02.822Z,100350.75
2023-05-06T11:05:30.496Z,100349.03
2023-05-06T11:08:11.265Z,100360.88
2023-05-06T11:10:39.015Z,100365.19
2023-05-06T11:13:25.402Z,100350.91
2023-05-06T11:15:53.231Z,100353.69
2023-05-06T11:18:45.696Z,100361.78
2023-05-06T11:21:41.076Z,100359.53
2023-05-06T11:24:12.760Z,100360.22
2023-05-06T11:26:44.126Z,100367.16
2023-05-06T11:29:12.919Z,100362.78
2023-05-06T11:31:42.029Z,100369.47
2023-05-06T11:34:12.078Z,100367.06
2023-05-06T11:36:58.411Z,100362.09
2023-05-06T11:39:30.201Z,100361.22
2023-05-06T11:41:59.741Z,100364.31
2023-05-06T11:44:29.986Z,100370.59
2023-05-06T11:46:58.517Z,100376.38
2023-05-06T11:49:26.769Z,100377.72
2023-05-06T11:51:54.514Z,100384.75
2023-05-06T11:54:23.004Z,100377.19
2023-05-06T11:56:51.772Z,100382.69
2023-05-06T11:59:29.125Z,100384.84
2023-05-06T12:01:58.436Z,100382.75
2023-05-06T12:04:26.272Z,100380.03
2023-05-06T12:06:55.549Z,100386.03
2023-05-06T12:09:23.511Z,100384.94
2023-05-06T12:11:51.363Z,100390.97
2023-05-06T12:14:19.404Z,100383.88
2023-05-06T12:16:48.556Z,100386.75
2023-05-06T12:19:17.598Z,100376.81
2023-05-06T12:21:46.041Z,100385.22
2023-05-06T12:24:13.855Z,100388.16
2023-05-06T12:26:47.969Z,100384.53
2023-05-06T12:29:17.666Z,100379.38
2023-05-06T12:31:47.081Z,100387.00
2023-05-06T12:34:17.862Z,100388.06
2023-05-06T12:36:47.195Z,100387.81
2023-05-06T12:39:14.984Z,100389.66
2023-05-06T12:41:43.940Z,100383.91
2023-05-06T12:44:31.087Z,100378.94
2023-05-06T12:46:58.712Z,100382.41
2023-05-06T12:49:27.917Z,100376.28
2023-05-06T12:52:10.682Z,100367.94
2023-05-06T12:54:38.683Z,100367.03
2023-05-06T12:57:06.581Z,100383.44
2023-05-06T12:59:35.728Z,100371.59
2023-05-06T13:02:03.305Z,100370.25
2023-05-06T13:04:32.375Z,100373.69
2023-05-06T13:06:59.926Z,100367.47
2023-05-06T13:09:27.431Z,100366.28
2023-05-06T13:11:55.104Z,100375.66
2023-05-06T13:14:22.726Z,100377.16
2023-05-06T13:16:50.562Z,100372.22
2023-05-06T13:19:31.673Z,100365.88
2023-05-06T13:22:01.491Z,100382.88
2023-05-06T13:24:29.263Z,100386.34
2023-05-06T13:26:57.426Z,100383.47
2023-05-06T13:29:25.184Z,100382.75
2023-05-06T13:31:52.723Z,100378.34
2023-05-06T13:34:20.280Z,100377.69
2023-05-06T13:36:49.309Z,100383.63
2023-05-06T13:39:18.149Z,100369.91
2023-05-06T13:41:47.432Z,100382.88
2023-05-06T13:44:14.979Z,100386.44
2023-05-06T13:46:44.140Z,100387.88
2023-05-06T13:49:13.722Z,100386.41
2023-05-06T13:51:41.225Z,100383.38
2023-05-06T13:54:08.728Z,100384.22
2023-05-06T13:56:37.614Z,100381.38
2023-05-06T13:59:05.226Z,100381.28
2023-05-06T14:01:32.808Z,100389.22
2023-05-06T14:04:00.365Z,100382.50
2023-05-06T14:06:28.494Z,100381.06
2023-05-06T14:08:55.976Z,100384.06
2023-05-06T14:11:23.494Z,100381.16
2023-05-06T14:13:52.291Z,100378.19
2023-05-06T14:16:19.854Z,100381.06
2023-05-06T14:18:47.492Z,100382.31
2023-05-06T14:21:14.980Z,100386.97
2023-05-06T14:23:42.579Z,100381.84
2023-05-06T14:26:10.562Z,100398.56
2023-05-06T14:28:38.016Z,100390.91
2023-05-06T14:31:06.913Z,100396.63
2023-05-06T14:33:34.396Z,100391.63
2023-05-06T14:36:03.420Z,100390.00
2023-05-06T14:38:31.143Z,100389.72
2023-05-06T14:40:59.398Z,100376.59
2023-05-06T14:43:27.162Z,100382.47
2023-05-06T14:45:54.706Z,100391.38
2023-05-06T14:48:25.304Z,100380.81
2023-05-06T14:50:53.030Z,100380.75
2023-05-06T14:53:20.542Z,100383.44
2023-05-06T14:55:48.909Z,100389.22
2023-05-06T14:58:16.420Z,100391.69
2023-05-06T15:00:43.929Z,100383.88
2023-05-06T15:03:11.409Z,100392.22
2023-05-06T15:05:40.220Z,100394.28
2023-05-06T15:08:07.731Z,100400.28
2023-05-06T15:10:35.251Z,100398.78
2023-05-06T15:13:02.943Z,100394.25
2023-05-06T15:15:30.714Z,100395.94
2023-05-06T15:17:58.301Z,100397.81
2023-05-06T15:20:26.075Z,100408.72
2023-05-06T15:22:54.935Z,100400.63
2023-05-06T15:25:33.462Z,100414.00
2023-05-06T15:28:02.821Z,100409.66
2023-05-06T15:30:30.326Z,100425.75
2023-05-06T15:32:57.918Z,100416.81
2023-05-06T15:35:25.521Z,100417.34
2023-05-06T15:37:59.100Z,100420.66
2023-05-06T15:40:26.971Z,100418.84
2023-05-06T15:42:54.556Z,100431.31
2023-05-06T15:45:22.500Z,100418.56
2023-05-06T15:47:50.019Z,100418.78
2023-05-06T15:50:31.952Z,100421.06
2023-05-06T15:53:02.617Z,100424.34
2023-05-06T15:55:35.141Z,100426.94
2023-05-06T15:58:08.902Z,100423.78
2023-05-06T16:00:36.392Z,100416.94
2023-05-06T16:03:04.038Z,100437.31
2023-05-06T16:05:31.671Z,100434.28
2023-05-06T16:07:59.139Z,100428.78
2023-05-06T16:10:28.035Z,100427.69
2023-05-06T16:12:55.597Z,100429.03
2023-05-06T16:15:23.562Z,100430.09
2023-05-06T16:17:51.430Z,100424.06
2023-05-06T16:20:19.358Z,100431.13
2023-05-06T16:22:51.613Z,100427.25
2023-05-06T16:25:19.831Z,100429.13
2023-05-06T16:27:48.820Z,100433.91
2023-05-06T16:30:16.687Z,100450.16
2023-05-06T16:32:44.290Z,100433.47
2023-05-06T16:35:11.859Z,100441.56
2023-05-06T16:37:39.421Z,100441.28
2023-05-06T16:40:09.152Z,100448.06
2023-05-06T16:42:36.875Z,100440.06
2023-05-06T16:45:07.084Z,100445.28
2023-05-06T16:47:34.766Z,100442.31
2023-05-06T16:50:02.380Z,100435.81
2023-05-06T16:52:30.744Z,100448.31
2023-05-06T16:54:58.435Z,100449.91
2023-05-06T16:57:26.003Z,100453.41
2023-05-06T16:59:53.509Z,100454.38
2023-05-06T17:02:22.506Z,100451.50
2023-05-06T17:04:50.025Z,100457.03
2023-05-06T17:07:17.503Z,100453.78
2023-05-06T17:09:44.996Z,100465.75
2023-05-06T17:12:12.492Z,100461.00
2023-05-06T17:14:41.394Z,100465.44
2023-05-06T17:17:08.926Z,100461.66
2023-05-06T17:19:37.828Z,100466.09
2023-05-06T17:22:05.768Z,100462.66
2023-05-06T17:24:33.310Z,100467.56
2023-05-06T17:27:01.743Z,100471.09
2023-05-06T17:29:29.366Z,100470.63
2023-05-06T17:31:56.873Z,100464.97
2023-05-06T17:34:24.363Z,100461.75
2023-05-06T17:36:53.202Z,100485.19
2023-05-06T17:39:21.310Z,100475.94
2023-05-06T17:41:48.808Z,100479.84
2023-05-06T17:44:17.508Z,100476.22
2023-05-06T17:46:45.668Z,100473.25
2023-05-06T17:49:13.236Z,100479.97
2023-05-06T17:51:40.864Z,100478.09
2023-05-06T17:54:09.667Z,100474.38
2023-05-06T17:56:37.733Z,100487.38
2023-05-06T17:59:05.532Z,100483.81
2023-05-06T18:01:33.121Z,100494.28
2023-05-06T18:04:00.840Z,100494.34
2023-05-06T18:06:28.796Z,100509.00
2023-05-06T18:08:56.284Z,100508.66
2023-05-06T18:11:25.121Z,100519.56
2023-05-06T18:13:52.603Z,100516.50
2023-05-06T18:16:20.153Z,100511.31
2023-05-06T18:18:47.672Z,100529.19
2023-05-06T18:21:15.465Z,100522.19
2023-05-06T18:23:42.956Z,100520.22
2023-05-06T18:26:10.479Z,100525.06
2023-05-06T18:28:41.209Z,100528.69
2023-05-06T18:31:08.719Z,100532.66
2023-05-06T18:33:36.471Z,100524.13
2023-05-06T18:36:04.195Z,100525.91
2023-05-06T18:38:31.700Z,100530.72
2023-05-06T18:40:59.228Z,100529.91
2023-05-06T18:43:26.716Z,100541.84
2023-05-06T18:45:55.565Z,100537.13
2023-05-06T18:48:23.145Z,100538.28
2023-05-06T18:50:50.928Z,100542.84
2023-05-06T18:53:18.385Z,100538.50
2023-05-06T18:55:45.895Z,100550.34
2023-05-06T18:58:13.439Z,100556.59
2023-05-06T19:00:40.969Z,100562.88
2023-05-06T19:03:09.884Z,100562.00
2023-05-06T19:05:38.065Z,100567.44
2023-05-06T19:08:07.369Z,100572.53
2023-05-06T19:10:35.104Z,100565.00
2023-05-06T19:13:02.992Z,100573.72
2023-05-06T19:15:30.634Z,100581.91
2023-05-06T19:17:58.353Z,100569.84
2023-05-06T19:20:27.144Z,100579.72
2023-05-06T19:22:54.948Z,100577.44
2023-05-06T19:25:23.513Z,100576.28
2023-05-06T19:27:52.707Z,100584.28
2023-05-06T19:30:20.825Z,100586.59
2023-05-06T19:32:48.785Z,100592.03
2023-05-06T19:35:17.676Z,100596.53
2023-05-06T19:37:47.555Z,100594.91
2023-05-06T19:40:15.468Z,100588.97
2023-05-06T19:42:43.307Z,100592.41
2023-05-06T19:45:12.444Z,100590.09
2023-05-06T19:47:42.126Z,100591.03
2023-05-06T19:50:10.953Z,100586.16
2023-05-06T19:52:38.962Z,100594.84
2023-05-06T19:55:10.235Z,100599.22
2023-05-06T19:57:38.430Z,100598.13
2023-05-06T20:00:10.291Z,100600.59
2023-05-06T20:02:39.654Z,100603.09
2023-05-06T20:05:09.181Z,100595.31
2023-05-06T20:07:38.797Z,100601.19
2023-05-06T20:10:10.096Z,100605.16
2023-05-06T20:12:38.160Z,100606.06
2023-05-06T20:15:07.351Z,100603.91
2023-05-06T20:17:35.553Z,100595.44
2023-05-06T20:20:09.299Z,100614.00
2023-05-06T20:22:37.941Z,100611.03
2023-05-06T20:25:11.795Z,100610.34
2023-05-06T20:27:40.360Z,100611.00
2023-05-06T20:30:09.869Z,100612.63
2023-05-06T20:32:38.157Z,100617.72
2023-05-06T20:35:07.356Z,100613.13
2023-05-06T20:37:36.468Z,100612.16
2023-05-06T20:40:06.740Z,100612.53
2023-05-06T20:42:36.024Z,100609.66
2023-05-06T20:45:04.542Z,100610.34
2023-05-06T20:47:32.549Z,100612.34
2023-05-06T20:50:00.482Z,100609.16
2023-05-06T20:52:28.121Z,100604.66
2023-05-06T20:54:56.023Z,100614.38
2023-05-06T20:57:24.451Z,100609.69
2023-05-06T20:59:53.714Z,100619.56
2023-05-06T21:02:21.802Z,100632.25
2023-05-06T21:04:49.602Z,100619.41
2023-05-06T21:07:17.837Z,100617.34
2023-05-06T21:09:45.701Z,100622.06
2023-05-06T21:12:13.177Z,100617.66
2023-05-06T21:14:40.648Z,100623.78
2023-05-06T21:17:09.538Z,100625.63
2023-05-06T21:19:37.025Z,100622.16
2023-05-06T21:22:04.511Z,100623.75
2023-05-06T21:24:32.109Z,100622.91
2023-05-06T21:27:00.285Z,100638.75
2023-05-06T21:29:27.803Z,100622.91
2023-05-06T21:31:55.418Z,100630.22
2023-05-06T21:34:25.462Z,100628.66
2023-05-06T21:36:52.965Z,100630.34
2023-05-06T21:39:20.871Z,100630.06
2023-05-06T21:41:48.595Z,100634.91
2023-05-06T21:44:16.069Z,100636.13
2023-05-06T21:46:43.629Z,100636.81
2023-05-06T21:49:11.124Z,100638.59
2023-05-06T21:51:39.931Z,100639.31
2023-05-06T21:54:07.412Z,100640.06
2023-05-06T21:56:34.908Z,100643.84
2023-05-06T21:59:02.573Z,100633.47
2023-05-06T22:01:30.320Z,100639.69
2023-05-06T22:03:57.846Z,100631.22
2023-05-06T22:06:25.466Z,100631.91
2023-05-06T22:08:54.270Z,100635.47
2023-05-06T22:11:22.674Z,100637.41
2023-05-06T22:13:50.214Z,100633.25
2023-05-06T22:16:17.793Z,100623.75
2023-05-06T22:18:45.373Z,100625.69
2023-05-06T22:21:12.881Z,100624.91
2023-05-06T22:23:40.596Z,100633.88
2023-05-06T22:26:09.455Z,100636.09
2023-05-06T22:28:36.926Z,100636.78
2023-05-06T22:31:07.165Z,100634.28
2023-05-06T22:33:34.686Z,100631.25
2023-05-06T22:36:02.152Z,100644.06
2023-05-06T22:38:29.690Z,100639.97
2023-05-06T22:40:57.199Z,100636.41
2023-05-06T22:43:26.023Z,100642.94
2023-05-06T22:45:53.514Z,100646.56
2023-05-06T22:48:22.039Z,100642.22
2023-05-06T22:50:49.545Z,100643.84
2023-05-06T22:53:17.090Z,100640.28
2023-05-06T22:55:45.367Z,100641.38
2023-05-06T22:58:12.911Z,100636.69
2023-05-06T23:00:43.220Z,100628.81
2023-05-06T23:03:10.802Z,100633.06
2023-05-06T23:05:38.388Z,100632.63
2023-05-06T23:08:06.367Z,100634.00
2023-05-06T23:10:33.921Z,100638.53
2023-05-06T23:13:01.939Z,100638.50
2023-05-06T23:15:29.638Z,100638.31
2023-05-06T23:17:58.502Z,100639.91
2023-05-06T23:20:26.061Z,100631.31
2023-05-06T23:22:53.793Z,100638.25
2023-05-06T23:25:21.279Z,100637.44
2023-05-06T23:27:48.799Z,100635.13
2023-05-06T23:30:16.496Z,100638.50
2023-05-06T23:32:44.040Z,100629.44
2023-05-06T23:35:13.070Z,100637.44
2023-05-06T23:37:40.759Z,100638.41
2023-05-06T23:40:09.409Z,100636.72
2023-05-06T23:42:36.908Z,100637.81
2023-05-06T23:45:04.923Z,100634.75
2023-05-06T23:47:32.472Z,100632.25
2023-05-06T23:50:00.656Z,100639.97
2023-05-06T23:52:29.510Z,100637.22
2023-05-06T23:54:56.977Z,100646.50
2023-05-06T23:57:24.552Z,100634.22
2023-05-06T23:59:52.048Z,100637.44
